Ciampino Airport


Codes: LIRA/CIA
Name: Ciampino Airport
City: Roma
Country: Italy
Elevation: 427 ft.
Wikipedia:

Photos at Ciampino Airport


   Photos courtesy of SpottingLog. You can add your own sightings and photos by signing up for a free trial today.



EI-EKJ, 05-May-2011
© Tobias Hottinger

EI-ENB, 05-May-2011
© Tobias Hottinger

I-AVVM, 05-May-2011
© Tobias Hottinger


Weather at Ciampino Airport


Time (UTC)DescriptionTempratureWindCloud coverageVisibilityPressureHumidity
21-Jun-2024 12:00Few Clouds35°C11 mph, SW13%10000m1016hPa30%
21-Jun-2024 15:00Light Rain34°C7 mph, SW5%10000m1015hPa26%
21-Jun-2024 18:00Clear Sky30°C7 mph, W5%10000m1014hPa34%
21-Jun-2024 21:00Clear Sky26°C2 mph, NW10%10000m1014hPa50%
22-Jun-2024 00:00Clear Sky25°C2 mph, W6%10000m1013hPa62%
22-Jun-2024 03:00Clear Sky23°C2 mph, NW0%10000m1013hPa70%
22-Jun-2024 06:00Clear Sky25°C0 mph, NW0%10000m1013hPa54%
22-Jun-2024 09:00Clear Sky31°C4 mph, SW0%10000m1013hPa27%
22-Jun-2024 12:00Clear Sky32°C11 mph, SW0%10000m1012hPa27%
22-Jun-2024 15:00Clear Sky29°C11 mph, W0%10000m1012hPa32%
22-Jun-2024 18:00Clear Sky25°C7 mph, SW0%10000m1011hPa48%
22-Jun-2024 21:00Clear Sky22°C4 mph, S0%10000m1012hPa73%
23-Jun-2024 00:00Clear Sky20°C4 mph, SE2%10000m1011hPa79%
23-Jun-2024 03:00Clear Sky20°C4 mph, SE2%10000m1011hPa78%
23-Jun-2024 06:00Few Clouds22°C9 mph, SE21%10000m1010hPa64%
23-Jun-2024 09:00Broken Clouds26°C11 mph, S71%10000m1011hPa53%
23-Jun-2024 12:00Broken Clouds26°C11 mph, SW84%10000m1012hPa52%
23-Jun-2024 15:00Overcast Clouds25°C11 mph, SW93%10000m1012hPa53%
23-Jun-2024 18:00Overcast Clouds22°C9 mph, SW89%10000m1013hPa61%
23-Jun-2024 21:00Overcast Clouds21°C4 mph, SW93%10000m1013hPa62%
24-Jun-2024 00:00Overcast Clouds20°C4 mph, S85%10000m1013hPa68%
24-Jun-2024 03:00Clear Sky19°C2 mph, SE8%10000m1012hPa69%
24-Jun-2024 06:00Few Clouds22°C2 mph, S23%10000m1012hPa51%
24-Jun-2024 09:00Scattered Clouds26°C9 mph, SW39%10000m1012hPa41%
24-Jun-2024 12:00Scattered Clouds27°C11 mph, SW41%10000m1012hPa42%
24-Jun-2024 15:00Overcast Clouds27°C9 mph, SW100%10000m1012hPa44%
24-Jun-2024 18:00Broken Clouds24°C7 mph, SW65%10000m1012hPa57%
24-Jun-2024 21:00Broken Clouds21°C2 mph, S54%10000m1013hPa74%
25-Jun-2024 00:00Light Rain21°C2 mph, E33%10000m1012hPa78%
25-Jun-2024 03:00Light Rain19°C2 mph, SE27%10000m1011hPa80%
25-Jun-2024 06:00Light Rain22°C4 mph, SE20%10000m1011hPa69%
25-Jun-2024 09:00Light Rain27°C11 mph, S57%10000m1010hPa43%
25-Jun-2024 12:00Broken Clouds28°C13 mph, S63%10000m1009hPa40%
25-Jun-2024 15:00Broken Clouds27°C13 mph, S68%10000m1009hPa50%
25-Jun-2024 18:00Scattered Clouds24°C7 mph, SW38%10000m1009hPa58%
25-Jun-2024 21:00Clear Sky22°C2 mph, W2%10000m1010hPa66%
26-Jun-2024 00:00Scattered Clouds20°C2 mph, NW26%10000m1009hPa68%
26-Jun-2024 03:00Clear Sky19°C4 mph, N4%10000m1009hPa71%
26-Jun-2024 06:00Clear Sky22°C4 mph, N3%10000m1010hPa59%
26-Jun-2024 09:00Clear Sky28°C4 mph, NW0%10000m1009hPa36%